Aeroporto :
LOGIN :

Iscrizione | Disclaimer

   EN    FR    IT 

 










Sommario :    VFR   VFR Marginale   IFR   IFR Intensivo   IFR Molto Intensivo
Visibilità : 
Base nubi : 
>= 8 km
>= 3000ft
5 / 8 km
1000 / 3000 ft
1500m / 5 km
500 / 1000 ft
800 / 1500m
200 / 500 ft
< 800m
< 200 ft
Simboli :   Temporali  Nebbia  Neve Forte  Precipitazioni Forti  Vento > 20 kt
SIGMETs :   Varie  Temporali  Ghiacco  Turbolenza  Onda orograficha  Ceneri Vulcaniche






- Altitudine del aeroporto : 446 ft
- Codice IATA : VNE


LFRV - Vannes-Meucon

ULTIMO METAR :
  • 150830Z AUTO 24006KT 210V290 9000 BKN009 OVC013 18/17 Q1006

METARs OBSOLETI :
  • 150800Z AUTO 23006KT 200V260 8000 BKN007 OVC011 18/17 Q1006
  • 150730Z AUTO 24005KT 200V300 6000 OVC005 18/17 Q1006
  • 150700Z AUTO 26006KT 230V290 5000 BR OVC005 17/16 Q1006
  • 150630Z AUTO 26006KT 220V300 4300 BR OVC004 17/16 Q1006
  • 150600Z AUTO 24005KT 200V280 5000 BR OVC005 16/16 Q1006

TAF N/A



MetMap, La meteo Aeronautica in un colpo d'occhio ! - Copyright ORBIFLY Dicembre 2007 - Disclaimer

ORBIFLY MET'MAP TEAM :

Programmazione e sviluppo : Alexandra Zaïnal
Concezione : Baudouin d'Aumeries
Supporto tecnico e logistico : Manuel Goepfert
Aiuto : Marc-Olivier Méhu
Aiuto per la traduzione : Arnaldo La Scala




FONTI E CREDITI :

   NOAA